This is the latest recevied weather packets stored in our database for station/object KEFK. If no packets are shown the sender has not sent any weather packets the latest 10 day(s).
| Time | Temp. | Humidity | Pressure | Rain* | Wind** | Luminosity | Snow |
|---|---|---|---|---|---|---|---|
| 1777392809 | 20° C | 32% | 1019 hPa | - | - | - | - |
| 1777392207 | 20° C | 32% | 1019 hPa | - | - | - | - |
| 1777391613 | 20° C | 30% | 1019.3 hPa | - | - | - | - |
| 1777391005 | 20° C | 30% | 1019.3 hPa | - | - | - | - |
| 1777390409 | 18.89° C | 32% | 1019.6 hPa | - | - | - | - |
| 1777389808 | 18.89° C | 32% | 1019.6 hPa | - | - | - | - |
| 1777389208 | 18.89° C | 34% | 1020 hPa | - | - | - | - |
| 1777388609 | 18.89° C | 34% | 1020 hPa | - | - | - | - |
| 1777388010 | 18.89° C | 32% | 1020 hPa | - | - | - | - |
| 1777387407 | 18.89° C | 32% | 1020 hPa | - | - | - | - |
| 1777386809 | 17.78° C | 34% | 1020 hPa | - | - | - | - |
| 1777386210 | 17.78° C | 34% | 1020 hPa | - | - | - | - |
| 1777385611 | 17.78° C | 31% | 1020 hPa | - | - | - | - |
| 1777385009 | 17.78° C | 31% | 1020 hPa | - | - | - | - |
| 1777384413 | 16.67° C | 36% | 1020 hPa | - | - | - | - |
| 1777383811 | 16.67° C | 36% | 1020 hPa | - | - | - | - |
| 1777383210 | 16.67° C | 36% | 1020.3 hPa | - | - | - | - |
| 1777382610 | 16.67° C | 36% | 1020.3 hPa | - | - | - | - |
| 1777382007 | 15.56° C | 41% | 1020.7 hPa | - | - | - | - |
| 1777381410 | 15.56° C | 41% | 1020.7 hPa | - | - | - | - |
| 1777380809 | 15° C | 41% | 1020.7 hPa | - | - | - | - |
| 1777380213 | 15° C | 41% | 1020.7 hPa | - | - | - | - |
| 1777379611 | 12.78° C | 54% | 1021 hPa | - | - | - | - |
| 1777379013 | 12.78° C | 54% | 1021 hPa | - | - | - | - |
| 1777378409 | 10.56° C | 57% | 1021 hPa | - | - | - | - |
* Rain since midnight (hover to see other rain measurements)
** Current wind speed in m/s (hover to see current wind gust speed)